sensor_id;sensor_type;location;lat;lon;timestamp;temperature;humidity
36552;DHT22;22559;54.176;12.102;2023-03-23T00:02:07;10.80;99.90
36552;DHT22;22559;54.176;12.102;2023-03-23T00:04:32;10.80;99.90
36552;DHT22;22559;54.176;12.102;2023-03-23T00:06:58;10.80;99.90
36552;DHT22;22559;54.176;12.102;2023-03-23T00:09:28;10.80;99.90
36552;DHT22;22559;54.176;12.102;2023-03-23T00:11:55;10.80;99.90
36552;DHT22;22559;54.176;12.102;2023-03-23T00:14:23;10.80;99.90
36552;DHT22;22559;54.176;12.102;2023-03-23T00:16:49;10.80;99.90
36552;DHT22;22559;54.176;12.102;2023-03-23T00:19:16;10.80;99.90
36552;DHT22;22559;54.176;12.102;2023-03-23T00:21:44;10.70;99.90
36552;DHT22;22559;54.176;12.102;2023-03-23T00:24:18;10.70;99.90
36552;DHT22;22559;54.176;12.102;2023-03-23T00:26:46;10.60;99.90
36552;DHT22;22559;54.176;12.102;2023-03-23T00:29:20;10.60;99.90
36552;DHT22;22559;54.176;12.102;2023-03-23T00:31:47;10.60;99.90
36552;DHT22;22559;54.176;12.102;2023-03-23T00:34:15;10.60;99.90
36552;DHT22;22559;54.176;12.102;2023-03-23T00:36:45;10.60;99.90
36552;DHT22;22559;54.176;12.102;2023-03-23T00:39:11;10.60;99.90
36552;DHT22;22559;54.176;12.102;2023-03-23T00:41:37;10.60;99.90
36552;DHT22;22559;54.176;12.102;2023-03-23T00:44:03;10.70;99.90
36552;DHT22;22559;54.176;12.102;2023-03-23T00:46:29;10.60;99.90
36552;DHT22;22559;54.176;12.102;2023-03-23T00:48:56;10.70;99.90
36552;DHT22;22559;54.176;12.102;2023-03-23T00:51:23;10.60;99.90
36552;DHT22;22559;54.176;12.102;2023-03-23T00:53:49;10.60;99.90
36552;DHT22;22559;54.176;12.102;2023-03-23T00:56:15;10.60;99.90
36552;DHT22;22559;54.176;12.102;2023-03-23T00:58:41;10.50;99.90
36552;DHT22;22559;54.176;12.102;2023-03-23T01:01:07;10.40;99.90
36552;DHT22;22559;54.176;12.102;2023-03-23T01:03:34;10.30;99.90
36552;DHT22;22559;54.176;12.102;2023-03-23T01:06:10;10.30;99.90
36552;DHT22;22559;54.176;12.102;2023-03-23T01:08:39;10.20;99.90
36552;DHT22;22559;54.176;12.102;2023-03-23T01:11:12;10.10;99.90
36552;DHT22;22559;54.176;12.102;2023-03-23T01:13:39;10.10;99.90
36552;DHT22;22559;54.176;12.102;2023-03-23T01:16:06;10.00;99.90
36552;DHT22;22559;54.176;12.102;2023-03-23T01:18:32;10.00;99.90
36552;DHT22;22559;54.176;12.102;2023-03-23T01:20:57;10.10;99.90
36552;DHT22;22559;54.176;12.102;2023-03-23T01:23:23;10.20;99.90
36552;DHT22;22559;54.176;12.102;2023-03-23T01:25:49;10.10;99.90
36552;DHT22;22559;54.176;12.102;2023-03-23T01:28:15;10.10;99.90
36552;DHT22;22559;54.176;12.102;2023-03-23T01:30:41;10.10;99.90
36552;DHT22;22559;54.176;12.102;2023-03-23T01:33:06;10.10;99.90
36552;DHT22;22559;54.176;12.102;2023-03-23T01:35:32;10.10;99.90
36552;DHT22;22559;54.176;12.102;2023-03-23T01:37:58;10.10;99.90
36552;DHT22;22559;54.176;12.102;2023-03-23T01:40:26;10.10;99.90
36552;DHT22;22559;54.176;12.102;2023-03-23T01:42:52;10.10;99.90
36552;DHT22;22559;54.176;12.102;2023-03-23T01:45:24;10.00;99.90
36552;DHT22;22559;54.176;12.102;2023-03-23T01:50:48;10.00;99.90
36552;DHT22;22559;54.176;12.102;2023-03-23T01:53:15;9.90;99.90
36552;DHT22;22559;54.176;12.102;2023-03-23T01:55:43;10.00;99.90
36552;DHT22;22559;54.176;12.102;2023-03-23T01:58:13;9.90;99.90
36552;DHT22;22559;54.176;12.102;2023-03-23T02:00:40;9.90;99.90
36552;DHT22;22559;54.176;12.102;2023-03-23T02:03:08;9.90;99.90
36552;DHT22;22559;54.176;12.102;2023-03-23T02:05:38;9.90;99.90
36552;DHT22;22559;54.176;12.102;2023-03-23T02:08:06;10.00;99.90
36552;DHT22;22559;54.176;12.102;2023-03-23T02:10:35;10.00;99.90
36552;DHT22;22559;54.176;12.102;2023-03-23T02:13:03;9.90;99.90
36552;DHT22;22559;54.176;12.102;2023-03-23T02:21:45;10.00;99.90
36552;DHT22;22559;54.176;12.102;2023-03-23T02:26:59;9.90;99.90
36552;DHT22;22559;54.176;12.102;2023-03-23T02:35:21;9.90;99.90
36552;DHT22;22559;54.176;12.102;2023-03-23T02:38:16;9.90;99.90
36552;DHT22;22559;54.176;12.102;2023-03-23T02:40:43;9.90;99.90
36552;DHT22;22559;54.176;12.102;2023-03-23T02:43:13;9.90;99.90
36552;DHT22;22559;54.176;12.102;2023-03-23T02:45:41;9.90;99.90
36552;DHT22;22559;54.176;12.102;2023-03-23T02:48:09;9.90;99.90
36552;DHT22;22559;54.176;12.102;2023-03-23T02:50:37;9.90;99.90
36552;DHT22;22559;54.176;12.102;2023-03-23T02:53:07;9.90;99.90
36552;DHT22;22559;54.176;12.102;2023-03-23T02:55:34;9.90;99.90
36552;DHT22;22559;54.176;12.102;2023-03-23T02:58:00;9.90;99.90
36552;DHT22;22559;54.176;12.102;2023-03-23T03:00:28;9.90;99.90
36552;DHT22;22559;54.176;12.102;2023-03-23T03:02:55;9.90;99.90
36552;DHT22;22559;54.176;12.102;2023-03-23T03:10:57;10.00;99.90
36552;DHT22;22559;54.176;12.102;2023-03-23T03:19:05;10.00;99.90
36552;DHT22;22559;54.176;12.102;2023-03-23T03:21:37;10.00;99.90
36552;DHT22;22559;54.176;12.102;2023-03-23T03:24:05;10.10;99.90
36552;DHT22;22559;54.176;12.102;2023-03-23T03:26:38;10.00;99.90
36552;DHT22;22559;54.176;12.102;2023-03-23T03:29:05;10.00;99.90
36552;DHT22;22559;54.176;12.102;2023-03-23T03:31:38;10.00;99.90
36552;DHT22;22559;54.176;12.102;2023-03-23T03:34:05;9.90;99.90
36552;DHT22;22559;54.176;12.102;2023-03-23T03:36:33;9.90;99.90
36552;DHT22;22559;54.176;12.102;2023-03-23T03:39:07;9.90;99.90
36552;DHT22;22559;54.176;12.102;2023-03-23T03:41:35;9.90;99.90
36552;DHT22;22559;54.176;12.102;2023-03-23T03:44:03;9.90;99.90
36552;DHT22;22559;54.176;12.102;2023-03-23T03:46:29;9.90;99.90
36552;DHT22;22559;54.176;12.102;2023-03-23T03:48:57;9.90;99.90
36552;DHT22;22559;54.176;12.102;2023-03-23T03:51:24;9.80;99.90
36552;DHT22;22559;54.176;12.102;2023-03-23T03:53:50;9.80;99.90
36552;DHT22;22559;54.176;12.102;2023-03-23T03:56:15;9.80;99.90
36552;DHT22;22559;54.176;12.102;2023-03-23T03:58:41;9.80;99.90
36552;DHT22;22559;54.176;12.102;2023-03-23T04:01:09;9.90;99.90
36552;DHT22;22559;54.176;12.102;2023-03-23T04:03:39;9.90;99.90
36552;DHT22;22559;54.176;12.102;2023-03-23T04:06:05;10.00;99.90
36552;DHT22;22559;54.176;12.102;2023-03-23T04:08:31;10.00;99.90
36552;DHT22;22559;54.176;12.102;2023-03-23T04:10:58;10.00;99.90
36552;DHT22;22559;54.176;12.102;2023-03-23T04:13:23;9.90;99.90
36552;DHT22;22559;54.176;12.102;2023-03-23T04:15:49;10.00;99.90
36552;DHT22;22559;54.176;12.102;2023-03-23T04:18:16;9.90;99.90
36552;DHT22;22559;54.176;12.102;2023-03-23T04:20:43;9.80;99.90
36552;DHT22;22559;54.176;12.102;2023-03-23T04:23:10;9.80;99.90
36552;DHT22;22559;54.176;12.102;2023-03-23T04:25:36;9.80;99.90
36552;DHT22;22559;54.176;12.102;2023-03-23T04:28:02;9.80;99.90
36552;DHT22;22559;54.176;12.102;2023-03-23T04:30:28;9.80;99.90
36552;DHT22;22559;54.176;12.102;2023-03-23T04:32:56;9.80;99.90
36552;DHT22;22559;54.176;12.102;2023-03-23T04:35:23;9.90;99.90
36552;DHT22;22559;54.176;12.102;2023-03-23T04:37:53;9.90;99.90
36552;DHT22;22559;54.176;12.102;2023-03-23T04:40:19;10.00;99.90
36552;DHT22;22559;54.176;12.102;2023-03-23T04:42:46;10.00;99.90
36552;DHT22;22559;54.176;12.102;2023-03-23T04:45:14;10.00;99.90
36552;DHT22;22559;54.176;12.102;2023-03-23T04:47:41;10.00;99.90
36552;DHT22;22559;54.176;12.102;2023-03-23T04:50:11;10.00;99.90
36552;DHT22;22559;54.176;12.102;2023-03-23T04:52:39;10.00;99.90
36552;DHT22;22559;54.176;12.102;2023-03-23T04:55:06;10.00;99.90
36552;DHT22;22559;54.176;12.102;2023-03-23T04:57:33;10.00;99.90
36552;DHT22;22559;54.176;12.102;2023-03-23T04:59:59;10.10;99.90
36552;DHT22;22559;54.176;12.102;2023-03-23T05:02:25;10.00;99.90
36552;DHT22;22559;54.176;12.102;2023-03-23T05:04:56;10.10;99.90
36552;DHT22;22559;54.176;12.102;2023-03-23T05:07:22;10.10;99.90
36552;DHT22;22559;54.176;12.102;2023-03-23T05:09:48;10.10;99.90
36552;DHT22;22559;54.176;12.102;2023-03-23T05:12:15;10.10;99.90
36552;DHT22;22559;54.176;12.102;2023-03-23T05:14:41;10.10;99.90
36552;DHT22;22559;54.176;12.102;2023-03-23T05:17:07;10.10;99.90
36552;DHT22;22559;54.176;12.102;2023-03-23T05:19:33;10.20;99.90
36552;DHT22;22559;54.176;12.102;2023-03-23T05:21:58;10.20;99.90
36552;DHT22;22559;54.176;12.102;2023-03-23T05:24:29;10.20;99.90
36552;DHT22;22559;54.176;12.102;2023-03-23T05:26:57;10.20;99.90
36552;DHT22;22559;54.176;12.102;2023-03-23T05:29:22;10.20;99.90
36552;DHT22;22559;54.176;12.102;2023-03-23T05:31:49;10.20;99.90
36552;DHT22;22559;54.176;12.102;2023-03-23T05:34:14;10.30;99.90
36552;DHT22;22559;54.176;12.102;2023-03-23T05:36:41;10.30;99.90
36552;DHT22;22559;54.176;12.102;2023-03-23T05:39:10;10.40;99.90
36552;DHT22;22559;54.176;12.102;2023-03-23T05:41:36;10.30;99.90
36552;DHT22;22559;54.176;12.102;2023-03-23T05:44:03;10.30;99.90
36552;DHT22;22559;54.176;12.102;2023-03-23T05:46:29;10.40;99.90
36552;DHT22;22559;54.176;12.102;2023-03-23T05:48:54;10.40;99.90
36552;DHT22;22559;54.176;12.102;2023-03-23T05:51:20;10.30;99.90
36552;DHT22;22559;54.176;12.102;2023-03-23T05:53:46;10.40;99.90
36552;DHT22;22559;54.176;12.102;2023-03-23T05:56:12;10.40;99.90
36552;DHT22;22559;54.176;12.102;2023-03-23T05:58:38;10.40;99.90
36552;DHT22;22559;54.176;12.102;2023-03-23T06:01:07;10.40;99.90
36552;DHT22;22559;54.176;12.102;2023-03-23T06:03:33;10.40;99.90
36552;DHT22;22559;54.176;12.102;2023-03-23T06:06:02;10.50;99.90
36552;DHT22;22559;54.176;12.102;2023-03-23T06:08:28;10.50;99.90
36552;DHT22;22559;54.176;12.102;2023-03-23T06:10:54;10.50;99.90
36552;DHT22;22559;54.176;12.102;2023-03-23T06:13:21;10.50;99.90
36552;DHT22;22559;54.176;12.102;2023-03-23T06:15:47;10.60;99.90
36552;DHT22;22559;54.176;12.102;2023-03-23T06:18:13;10.60;99.90
36552;DHT22;22559;54.176;12.102;2023-03-23T06:20:39;10.50;99.90
36552;DHT22;22559;54.176;12.102;2023-03-23T06:23:06;10.60;99.90
36552;DHT22;22559;54.176;12.102;2023-03-23T06:25:32;10.60;99.90
36552;DHT22;22559;54.176;12.102;2023-03-23T06:27:58;10.60;99.90
36552;DHT22;22559;54.176;12.102;2023-03-23T06:30:24;10.60;99.90
36552;DHT22;22559;54.176;12.102;2023-03-23T06:32:52;10.70;99.90
36552;DHT22;22559;54.176;12.102;2023-03-23T06:35:18;10.70;99.90
36552;DHT22;22559;54.176;12.102;2023-03-23T06:37:44;10.70;99.90
36552;DHT22;22559;54.176;12.102;2023-03-23T06:40:11;10.70;99.90
36552;DHT22;22559;54.176;12.102;2023-03-23T06:42:37;10.70;99.90
36552;DHT22;22559;54.176;12.102;2023-03-23T06:45:03;10.70;99.90
36552;DHT22;22559;54.176;12.102;2023-03-23T06:47:30;10.80;99.90
36552;DHT22;22559;54.176;12.102;2023-03-23T06:49:56;10.80;99.90
36552;DHT22;22559;54.176;12.102;2023-03-23T06:52:23;10.80;99.90
36552;DHT22;22559;54.176;12.102;2023-03-23T06:54:50;10.80;99.90
36552;DHT22;22559;54.176;12.102;2023-03-23T06:57:16;10.90;99.90
36552;DHT22;22559;54.176;12.102;2023-03-23T06:59:42;10.90;99.90
36552;DHT22;22559;54.176;12.102;2023-03-23T07:02:12;10.90;99.90
36552;DHT22;22559;54.176;12.102;2023-03-23T07:04:39;10.90;99.90
36552;DHT22;22559;54.176;12.102;2023-03-23T07:07:08;11.00;99.90
36552;DHT22;22559;54.176;12.102;2023-03-23T07:09:34;11.00;99.90
36552;DHT22;22559;54.176;12.102;2023-03-23T07:11:59;11.00;99.90
36552;DHT22;22559;54.176;12.102;2023-03-23T07:14:25;11.10;99.90
36552;DHT22;22559;54.176;12.102;2023-03-23T07:16:51;11.10;99.90
36552;DHT22;22559;54.176;12.102;2023-03-23T07:19:18;11.10;99.90
36552;DHT22;22559;54.176;12.102;2023-03-23T07:21:44;11.20;99.90
36552;DHT22;22559;54.176;12.102;2023-03-23T07:24:11;11.20;99.90
36552;DHT22;22559;54.176;12.102;2023-03-23T07:26:42;11.20;99.90
36552;DHT22;22559;54.176;12.102;2023-03-23T07:29:08;11.30;99.90
36552;DHT22;22559;54.176;12.102;2023-03-23T07:31:34;11.40;99.90
36552;DHT22;22559;54.176;12.102;2023-03-23T07:34:01;11.40;99.90
36552;DHT22;22559;54.176;12.102;2023-03-23T07:36:29;11.50;99.90
36552;DHT22;22559;54.176;12.102;2023-03-23T07:38:54;11.50;99.90
36552;DHT22;22559;54.176;12.102;2023-03-23T07:41:20;11.50;99.90
36552;DHT22;22559;54.176;12.102;2023-03-23T07:43:46;11.50;99.90
36552;DHT22;22559;54.176;12.102;2023-03-23T07:46:12;11.60;99.90
36552;DHT22;22559;54.176;12.102;2023-03-23T07:48:38;11.60;99.90
36552;DHT22;22559;54.176;12.102;2023-03-23T07:51:05;11.70;99.90
36552;DHT22;22559;54.176;12.102;2023-03-23T07:53:30;11.80;99.90
36552;DHT22;22559;54.176;12.102;2023-03-23T07:55:56;11.90;99.90
36552;DHT22;22559;54.176;12.102;2023-03-23T07:58:22;12.00;99.90
36552;DHT22;22559;54.176;12.102;2023-03-23T08:00:48;12.00;99.90
36552;DHT22;22559;54.176;12.102;2023-03-23T08:03:15;12.00;99.90
36552;DHT22;22559;54.176;12.102;2023-03-23T08:05:41;12.00;99.90
36552;DHT22;22559;54.176;12.102;2023-03-23T08:08:08;11.90;99.90
36552;DHT22;22559;54.176;12.102;2023-03-23T08:10:35;11.90;99.90
36552;DHT22;22559;54.176;12.102;2023-03-23T08:13:01;11.90;99.90
36552;DHT22;22559;54.176;12.102;2023-03-23T08:15:27;12.00;99.90
36552;DHT22;22559;54.176;12.102;2023-03-23T08:17:54;12.10;99.90
36552;DHT22;22559;54.176;12.102;2023-03-23T08:20:20;12.30;99.90
36552;DHT22;22559;54.176;12.102;2023-03-23T08:22:54;12.30;99.90
36552;DHT22;22559;54.176;12.102;2023-03-23T08:25:21;12.70;99.90
36552;DHT22;22559;54.176;12.102;2023-03-23T08:27:47;13.20;99.90
36552;DHT22;22559;54.176;12.102;2023-03-23T08:30:16;13.40;99.90
36552;DHT22;22559;54.176;12.102;2023-03-23T08:32:42;13.60;99.90
36552;DHT22;22559;54.176;12.102;2023-03-23T08:35:10;14.10;99.90
36552;DHT22;22559;54.176;12.102;2023-03-23T08:37:37;14.50;99.90
36552;DHT22;22559;54.176;12.102;2023-03-23T08:40:05;14.50;99.90
36552;DHT22;22559;54.176;12.102;2023-03-23T08:42:37;14.20;99.90
36552;DHT22;22559;54.176;12.102;2023-03-23T08:45:05;14.00;99.90
36552;DHT22;22559;54.176;12.102;2023-03-23T08:47:32;13.90;99.90
36552;DHT22;22559;54.176;12.102;2023-03-23T08:49:58;14.00;99.90
36552;DHT22;22559;54.176;12.102;2023-03-23T08:52:24;14.30;99.90
36552;DHT22;22559;54.176;12.102;2023-03-23T08:54:50;14.30;99.90
36552;DHT22;22559;54.176;12.102;2023-03-23T08:57:15;14.00;99.90
36552;DHT22;22559;54.176;12.102;2023-03-23T08:59:41;13.90;99.90
36552;DHT22;22559;54.176;12.102;2023-03-23T09:02:10;14.00;99.90
36552;DHT22;22559;54.176;12.102;2023-03-23T09:04:35;13.90;99.90
36552;DHT22;22559;54.176;12.102;2023-03-23T09:07:02;14.00;99.90
36552;DHT22;22559;54.176;12.102;2023-03-23T09:09:28;14.30;99.90
36552;DHT22;22559;54.176;12.102;2023-03-23T09:11:54;14.40;99.90
36552;DHT22;22559;54.176;12.102;2023-03-23T09:14:19;14.20;99.90
36552;DHT22;22559;54.176;12.102;2023-03-23T09:16:45;14.10;99.90
36552;DHT22;22559;54.176;12.102;2023-03-23T09:19:11;13.90;99.90
36552;DHT22;22559;54.176;12.102;2023-03-23T09:21:38;13.90;99.90
36552;DHT22;22559;54.176;12.102;2023-03-23T09:24:04;13.80;99.90
36552;DHT22;22559;54.176;12.102;2023-03-23T09:26:30;13.70;99.90
36552;DHT22;22559;54.176;12.102;2023-03-23T09:28:56;13.70;99.90
36552;DHT22;22559;54.176;12.102;2023-03-23T09:31:23;13.60;99.90
36552;DHT22;22559;54.176;12.102;2023-03-23T09:33:52;13.60;99.90
36552;DHT22;22559;54.176;12.102;2023-03-23T09:36:21;13.60;99.90
36552;DHT22;22559;54.176;12.102;2023-03-23T09:38:48;13.50;99.90
36552;DHT22;22559;54.176;12.102;2023-03-23T09:41:38;13.40;99.90
36552;DHT22;22559;54.176;12.102;2023-03-23T09:47:06;13.20;99.90
36552;DHT22;22559;54.176;12.102;2023-03-23T09:49:45;13.20;99.90
36552;DHT22;22559;54.176;12.102;2023-03-23T09:52:15;13.10;99.90
36552;DHT22;22559;54.176;12.102;2023-03-23T09:54:45;13.10;99.90
36552;DHT22;22559;54.176;12.102;2023-03-23T10:00:30;13.00;99.90
36552;DHT22;22559;54.176;12.102;2023-03-23T10:03:17;12.80;99.90
36552;DHT22;22559;54.176;12.102;2023-03-23T10:05:51;12.40;99.90
36552;DHT22;22559;54.176;12.102;2023-03-23T10:08:20;12.00;99.90
36552;DHT22;22559;54.176;12.102;2023-03-23T10:16:00;11.50;99.90
36552;DHT22;22559;54.176;12.102;2023-03-23T10:18:29;11.30;99.90
36552;DHT22;22559;54.176;12.102;2023-03-23T10:21:00;11.20;99.90
36552;DHT22;22559;54.176;12.102;2023-03-23T10:26:08;11.10;99.90
36552;DHT22;22559;54.176;12.102;2023-03-23T10:28:39;11.00;99.90
36552;DHT22;22559;54.176;12.102;2023-03-23T10:31:12;11.00;99.90
36552;DHT22;22559;54.176;12.102;2023-03-23T10:33:54;11.10;99.90
36552;DHT22;22559;54.176;12.102;2023-03-23T10:36:37;11.10;99.90
36552;DHT22;22559;54.176;12.102;2023-03-23T10:39:17;11.10;99.90
36552;DHT22;22559;54.176;12.102;2023-03-23T10:41:43;11.30;99.90
36552;DHT22;22559;54.176;12.102;2023-03-23T10:44:11;11.50;99.90
36552;DHT22;22559;54.176;12.102;2023-03-23T10:46:58;11.60;99.90
36552;DHT22;22559;54.176;12.102;2023-03-23T10:49:28;11.80;99.90
36552;DHT22;22559;54.176;12.102;2023-03-23T10:52:09;11.90;99.90
36552;DHT22;22559;54.176;12.102;2023-03-23T10:54:39;12.00;99.90
36552;DHT22;22559;54.176;12.102;2023-03-23T10:57:27;12.20;99.90
36552;DHT22;22559;54.176;12.102;2023-03-23T11:02:27;12.50;99.90
36552;DHT22;22559;54.176;12.102;2023-03-23T11:05:00;12.50;99.90
36552;DHT22;22559;54.176;12.102;2023-03-23T11:07:29;12.50;99.90
36552;DHT22;22559;54.176;12.102;2023-03-23T11:09:57;12.60;99.90
36552;DHT22;22559;54.176;12.102;2023-03-23T11:12:24;12.70;99.90
36552;DHT22;22559;54.176;12.102;2023-03-23T11:14:50;12.80;99.90
36552;DHT22;22559;54.176;12.102;2023-03-23T11:17:25;12.90;99.90
36552;DHT22;22559;54.176;12.102;2023-03-23T11:19:52;13.30;99.90
36552;DHT22;22559;54.176;12.102;2023-03-23T11:22:29;13.60;99.90
36552;DHT22;22559;54.176;12.102;2023-03-23T11:25:05;13.60;99.90
36552;DHT22;22559;54.176;12.102;2023-03-23T11:27:32;14.20;99.90
36552;DHT22;22559;54.176;12.102;2023-03-23T11:30:10;14.80;99.90
36552;DHT22;22559;54.176;12.102;2023-03-23T11:32:37;15.20;99.90
36552;DHT22;22559;54.176;12.102;2023-03-23T11:35:21;15.40;99.90
36552;DHT22;22559;54.176;12.102;2023-03-23T11:37:51;15.50;99.90
36552;DHT22;22559;54.176;12.102;2023-03-23T11:40:23;15.90;99.90
36552;DHT22;22559;54.176;12.102;2023-03-23T11:42:59;16.20;99.90
36552;DHT22;22559;54.176;12.102;2023-03-23T11:45:37;16.40;99.90
36552;DHT22;22559;54.176;12.102;2023-03-23T11:48:29;16.70;99.90
36552;DHT22;22559;54.176;12.102;2023-03-23T11:51:10;16.60;99.90
36552;DHT22;22559;54.176;12.102;2023-03-23T11:58:42;15.80;99.90
36552;DHT22;22559;54.176;12.102;2023-03-23T12:01:22;15.30;99.90
36552;DHT22;22559;54.176;12.102;2023-03-23T12:03:58;15.00;99.90
36552;DHT22;22559;54.176;12.102;2023-03-23T12:15:26;14.50;99.90
36552;DHT22;22559;54.176;12.102;2023-03-23T12:18:18;14.40;99.90
36552;DHT22;22559;54.176;12.102;2023-03-23T12:21:08;14.40;99.90
36552;DHT22;22559;54.176;12.102;2023-03-23T12:23:39;14.40;99.90
36552;DHT22;22559;54.176;12.102;2023-03-23T12:34:30;14.20;99.90
36552;DHT22;22559;54.176;12.102;2023-03-23T12:42:47;14.20;99.90
36552;DHT22;22559;54.176;12.102;2023-03-23T12:48:09;14.20;99.90
36552;DHT22;22559;54.176;12.102;2023-03-23T12:50:59;14.20;99.90
36552;DHT22;22559;54.176;12.102;2023-03-23T12:53:37;14.10;99.90
36552;DHT22;22559;54.176;12.102;2023-03-23T12:56:21;14.10;99.90
36552;DHT22;22559;54.176;12.102;2023-03-23T12:58:53;14.20;99.90
36552;DHT22;22559;54.176;12.102;2023-03-23T13:01:25;14.30;99.90
36552;DHT22;22559;54.176;12.102;2023-03-23T13:04:09;14.40;99.90
36552;DHT22;22559;54.176;12.102;2023-03-23T13:06:41;14.40;99.90
36552;DHT22;22559;54.176;12.102;2023-03-23T13:11:42;14.30;99.90
36552;DHT22;22559;54.176;12.102;2023-03-23T13:17:33;14.20;99.90
36552;DHT22;22559;54.176;12.102;2023-03-23T13:20:33;14.20;99.90
36552;DHT22;22559;54.176;12.102;2023-03-23T13:23:12;14.30;99.90
36552;DHT22;22559;54.176;12.102;2023-03-23T13:28:05;14.10;99.90
36552;DHT22;22559;54.176;12.102;2023-03-23T13:30:30;14.20;99.90
36552;DHT22;22559;54.176;12.102;2023-03-23T13:33:10;14.10;99.90
36552;DHT22;22559;54.176;12.102;2023-03-23T13:35:38;14.10;99.90
36552;DHT22;22559;54.176;12.102;2023-03-23T13:38:30;14.10;99.90
36552;DHT22;22559;54.176;12.102;2023-03-23T13:40:56;14.20;99.90
36552;DHT22;22559;54.176;12.102;2023-03-23T13:43:34;14.30;99.90
36552;DHT22;22559;54.176;12.102;2023-03-23T13:49:04;14.30;99.90
36552;DHT22;22559;54.176;12.102;2023-03-23T13:51:51;14.20;99.90
36552;DHT22;22559;54.176;12.102;2023-03-23T13:54:44;14.20;99.90
36552;DHT22;22559;54.176;12.102;2023-03-23T13:57:49;14.10;99.90
36552;DHT22;22559;54.176;12.102;2023-03-23T14:11:01;14.20;99.90
36552;DHT22;22559;54.176;12.102;2023-03-23T14:13:49;14.20;99.90
36552;DHT22;22559;54.176;12.102;2023-03-23T14:16:23;14.20;99.90
36552;DHT22;22559;54.176;12.102;2023-03-23T14:19:01;14.10;99.90
36552;DHT22;22559;54.176;12.102;2023-03-23T14:24:03;14.20;99.90
36552;DHT22;22559;54.176;12.102;2023-03-23T14:26:33;14.20;99.90
36552;DHT22;22559;54.176;12.102;2023-03-23T14:28:59;14.20;99.90
36552;DHT22;22559;54.176;12.102;2023-03-23T14:31:27;14.10;99.90
36552;DHT22;22559;54.176;12.102;2023-03-23T14:33:55;14.10;99.90
36552;DHT22;22559;54.176;12.102;2023-03-23T14:36:27;14.20;99.90
36552;DHT22;22559;54.176;12.102;2023-03-23T14:41:36;14.50;99.90
36552;DHT22;22559;54.176;12.102;2023-03-23T14:44:05;15.30;99.90
36552;DHT22;22559;54.176;12.102;2023-03-23T14:46:32;16.00;99.90
36552;DHT22;22559;54.176;12.102;2023-03-23T14:49:04;16.30;99.90
36552;DHT22;22559;54.176;12.102;2023-03-23T14:51:30;16.00;99.90
36552;DHT22;22559;54.176;12.102;2023-03-23T14:53:58;15.80;99.90
36552;DHT22;22559;54.176;12.102;2023-03-23T14:56:33;15.80;99.90
36552;DHT22;22559;54.176;12.102;2023-03-23T14:59:04;15.70;99.90
36552;DHT22;22559;54.176;12.102;2023-03-23T15:01:33;15.40;99.90
36552;DHT22;22559;54.176;12.102;2023-03-23T15:07:17;15.00;99.90
36552;DHT22;22559;54.176;12.102;2023-03-23T15:09:40;14.90;99.90
36552;DHT22;22559;54.176;12.102;2023-03-23T15:12:06;14.80;99.90
36552;DHT22;22559;54.176;12.102;2023-03-23T15:14:45;14.70;99.90
36552;DHT22;22559;54.176;12.102;2023-03-23T15:17:23;14.60;99.90
36552;DHT22;22559;54.176;12.102;2023-03-23T15:19:50;14.40;99.90
36552;DHT22;22559;54.176;12.102;2023-03-23T15:24:49;14.40;99.90
36552;DHT22;22559;54.176;12.102;2023-03-23T15:27:24;14.40;99.90
36552;DHT22;22559;54.176;12.102;2023-03-23T15:29:55;14.60;99.90
36552;DHT22;22559;54.176;12.102;2023-03-23T15:32:25;14.80;99.90
36552;DHT22;22559;54.176;12.102;2023-03-23T15:34:52;15.10;99.90
36552;DHT22;22559;54.176;12.102;2023-03-23T15:37:28;15.00;99.90
36552;DHT22;22559;54.176;12.102;2023-03-23T15:39:55;14.70;99.90
36552;DHT22;22559;54.176;12.102;2023-03-23T15:47:45;14.60;99.90
36552;DHT22;22559;54.176;12.102;2023-03-23T15:50:12;14.40;99.90
36552;DHT22;22559;54.176;12.102;2023-03-23T15:52:39;14.20;99.90
36552;DHT22;22559;54.176;12.102;2023-03-23T15:55:27;14.00;99.90
36552;DHT22;22559;54.176;12.102;2023-03-23T15:57:55;14.00;99.90
36552;DHT22;22559;54.176;12.102;2023-03-23T16:00:22;14.00;99.90
36552;DHT22;22559;54.176;12.102;2023-03-23T16:02:58;14.00;99.90
36552;DHT22;22559;54.176;12.102;2023-03-23T16:05:26;13.90;99.90
36552;DHT22;22559;54.176;12.102;2023-03-23T16:07:52;13.90;99.90
36552;DHT22;22559;54.176;12.102;2023-03-23T16:10:20;13.80;99.90
36552;DHT22;22559;54.176;12.102;2023-03-23T16:12:46;13.70;99.90
36552;DHT22;22559;54.176;12.102;2023-03-23T16:15:15;13.70;99.90
36552;DHT22;22559;54.176;12.102;2023-03-23T16:17:41;13.70;99.90
36552;DHT22;22559;54.176;12.102;2023-03-23T16:20:20;13.70;99.90
36552;DHT22;22559;54.176;12.102;2023-03-23T16:22:47;13.70;99.90
36552;DHT22;22559;54.176;12.102;2023-03-23T16:25:13;13.90;99.90
36552;DHT22;22559;54.176;12.102;2023-03-23T16:27:40;14.10;99.90
36552;DHT22;22559;54.176;12.102;2023-03-23T16:30:14;14.40;99.90
36552;DHT22;22559;54.176;12.102;2023-03-23T16:32:40;14.50;99.90
36552;DHT22;22559;54.176;12.102;2023-03-23T16:35:06;14.30;99.90
36552;DHT22;22559;54.176;12.102;2023-03-23T16:37:32;14.10;99.90
36552;DHT22;22559;54.176;12.102;2023-03-23T16:39:59;13.90;99.90
36552;DHT22;22559;54.176;12.102;2023-03-23T16:42:25;13.70;99.90
36552;DHT22;22559;54.176;12.102;2023-03-23T16:44:51;13.60;99.90
36552;DHT22;22559;54.176;12.102;2023-03-23T16:47:19;13.40;99.90
36552;DHT22;22559;54.176;12.102;2023-03-23T16:49:47;13.30;99.90
36552;DHT22;22559;54.176;12.102;2023-03-23T16:52:13;13.30;99.90
36552;DHT22;22559;54.176;12.102;2023-03-23T16:54:39;13.30;99.90
36552;DHT22;22559;54.176;12.102;2023-03-23T16:57:04;13.20;99.90
36552;DHT22;22559;54.176;12.102;2023-03-23T16:59:30;13.20;99.90
36552;DHT22;22559;54.176;12.102;2023-03-23T17:01:56;13.10;99.90
36552;DHT22;22559;54.176;12.102;2023-03-23T17:04:30;13.00;99.90
36552;DHT22;22559;54.176;12.102;2023-03-23T17:06:56;12.90;99.90
36552;DHT22;22559;54.176;12.102;2023-03-23T17:09:25;12.80;99.90
36552;DHT22;22559;54.176;12.102;2023-03-23T17:11:52;12.70;99.90
36552;DHT22;22559;54.176;12.102;2023-03-23T17:14:18;12.60;99.90
36552;DHT22;22559;54.176;12.102;2023-03-23T17:16:44;12.50;99.90
36552;DHT22;22559;54.176;12.102;2023-03-23T17:19:11;12.40;99.90
36552;DHT22;22559;54.176;12.102;2023-03-23T17:21:39;12.30;99.90
36552;DHT22;22559;54.176;12.102;2023-03-23T17:24:05;12.20;99.90
36552;DHT22;22559;54.176;12.102;2023-03-23T17:26:31;12.10;99.90